sensor_id;sensor_type;location;lat;lon;timestamp;pressure;altitude;pressure_sealevel;temperature;humidity
57568;BME280;43403;51.948;5.922;2023-03-04T00:02:08;102586.00;;;6.82;85.86
57568;BME280;43403;51.948;5.922;2023-03-04T00:04:35;102586.97;;;6.80;85.51
57568;BME280;43403;51.948;5.922;2023-03-04T00:07:01;102582.25;;;6.70;85.68
57568;BME280;43403;51.948;5.922;2023-03-04T00:09:27;102582.53;;;6.64;85.65
57568;BME280;43403;51.948;5.922;2023-03-04T00:11:54;102580.56;;;6.69;86.44
57568;BME280;43403;51.948;5.922;2023-03-04T00:14:20;102578.19;;;6.65;87.46
57568;BME280;43403;51.948;5.922;2023-03-04T00:16:47;102587.63;;;6.67;86.85
57568;BME280;43403;51.948;5.922;2023-03-04T00:19:14;102586.84;;;6.65;87.30
57568;BME280;43403;51.948;5.922;2023-03-04T00:21:40;102585.16;;;6.64;87.64
57568;BME280;43403;51.948;5.922;2023-03-04T00:24:07;102589.53;;;6.64;87.19
57568;BME280;43403;51.948;5.922;2023-03-04T00:26:33;102584.31;;;6.64;87.91
57568;BME280;43403;51.948;5.922;2023-03-04T00:29:00;102583.41;;;6.65;88.47
57568;BME280;43403;51.948;5.922;2023-03-04T00:31:26;102587.00;;;6.62;88.17
57568;BME280;43403;51.948;5.922;2023-03-04T00:33:53;102585.31;;;6.61;89.09
57568;BME280;43403;51.948;5.922;2023-03-04T00:36:19;102580.09;;;6.61;88.00
57568;BME280;43403;51.948;5.922;2023-03-04T00:38:45;102574.72;;;6.64;87.77
57568;BME280;43403;51.948;5.922;2023-03-04T00:41:12;102581.00;;;6.60;87.37
57568;BME280;43403;51.948;5.922;2023-03-04T00:43:38;102570.91;;;6.54;89.58
57568;BME280;43403;51.948;5.922;2023-03-04T00:46:05;102581.13;;;6.59;88.84
57568;BME280;43403;51.948;5.922;2023-03-04T00:48:32;102569.81;;;6.58;88.57
57568;BME280;43403;51.948;5.922;2023-03-04T00:50:58;102575.59;;;6.65;87.90
57568;BME280;43403;51.948;5.922;2023-03-04T00:53:25;102574.81;;;6.63;88.59
57568;BME280;43403;51.948;5.922;2023-03-04T00:55:51;102580.69;;;6.66;89.26
57568;BME280;43403;51.948;5.922;2023-03-04T00:58:18;102581.56;;;6.67;88.68
57568;BME280;43403;51.948;5.922;2023-03-04T01:00:44;102583.22;;;6.68;89.37
57568;BME280;43403;51.948;5.922;2023-03-04T01:03:10;102576.34;;;6.67;89.77
57568;BME280;43403;51.948;5.922;2023-03-04T01:05:37;102575.66;;;6.63;89.27
57568;BME280;43403;51.948;5.922;2023-03-04T01:08:04;102575.72;;;6.62;90.16
57568;BME280;43403;51.948;5.922;2023-03-04T01:10:30;102581.72;;;6.64;90.72
57568;BME280;43403;51.948;5.922;2023-03-04T01:12:57;102575.78;;;6.60;90.69
57568;BME280;43403;51.948;5.922;2023-03-04T01:15:24;102589.78;;;6.59;90.90
57568;BME280;43403;51.948;5.922;2023-03-04T01:17:50;102579.16;;;6.62;90.45
57568;BME280;43403;51.948;5.922;2023-03-04T01:20:17;102577.31;;;6.64;89.85
57568;BME280;43403;51.948;5.922;2023-03-04T01:22:43;102578.19;;;6.65;90.54
57568;BME280;43403;51.948;5.922;2023-03-04T01:25:10;102579.16;;;6.62;91.35
57568;BME280;43403;51.948;5.922;2023-03-04T01:27:36;102570.75;;;6.57;91.04
57568;BME280;43403;51.948;5.922;2023-03-04T01:30:03;102570.91;;;6.54;91.69
57568;BME280;43403;51.948;5.922;2023-03-04T01:32:30;102563.00;;;6.56;92.72
57568;BME280;43403;51.948;5.922;2023-03-04T01:34:56;102563.84;;;6.56;92.21
57568;BME280;43403;51.948;5.922;2023-03-04T01:37:23;102563.06;;;6.54;93.34
57568;BME280;43403;51.948;5.922;2023-03-04T01:39:49;102561.09;;;6.59;92.96
57568;BME280;43403;51.948;5.922;2023-03-04T01:42:21;102558.41;;;6.61;91.77
57568;BME280;43403;51.948;5.922;2023-03-04T01:44:48;102562.00;;;6.58;93.34
57568;BME280;43403;51.948;5.922;2023-03-04T01:47:17;102556.88;;;6.57;91.65
57568;BME280;43403;51.948;5.922;2023-03-04T01:49:47;102554.88;;;6.62;92.11
57568;BME280;43403;51.948;5.922;2023-03-04T01:52:16;102547.34;;;6.56;92.17
57568;BME280;43403;51.948;5.922;2023-03-04T01:54:42;102552.50;;;6.57;91.99
57568;BME280;43403;51.948;5.922;2023-03-04T01:57:17;102551.50;;;6.60;93.32
57568;BME280;43403;51.948;5.922;2023-03-04T01:59:44;102548.88;;;6.60;91.77
57568;BME280;43403;51.948;5.922;2023-03-04T02:02:12;102549.72;;;6.60;92.58
57568;BME280;43403;51.948;5.922;2023-03-04T02:04:40;102534.25;;;6.57;92.04
57568;BME280;43403;51.948;5.922;2023-03-04T02:07:07;102533.25;;;6.60;92.50
57568;BME280;43403;51.948;5.922;2023-03-04T02:09:35;102530.63;;;6.60;92.45
57568;BME280;43403;51.948;5.922;2023-03-04T02:12:02;102529.81;;;6.59;92.50
57568;BME280;43403;51.948;5.922;2023-03-04T02:14:28;102527.19;;;6.59;92.46
57568;BME280;43403;51.948;5.922;2023-03-04T02:16:55;102527.13;;;6.61;93.01
57568;BME280;43403;51.948;5.922;2023-03-04T02:19:41;102527.50;;;6.53;92.01
57568;BME280;43403;51.948;5.922;2023-03-04T02:22:10;102525.75;;;6.53;92.24
57568;BME280;43403;51.948;5.922;2023-03-04T02:24:46;102521.28;;;6.56;92.99
57568;BME280;43403;51.948;5.922;2023-03-04T02:27:15;102527.34;;;6.56;92.05
57568;BME280;43403;51.948;5.922;2023-03-04T02:29:41;102521.28;;;6.56;91.63
57568;BME280;43403;51.948;5.922;2023-03-04T02:32:10;102516.59;;;6.62;91.18
57568;BME280;43403;51.948;5.922;2023-03-04T02:34:44;102516.75;;;6.59;92.09
57568;BME280;43403;51.948;5.922;2023-03-04T02:37:12;102523.97;;;6.54;91.49
57568;BME280;43403;51.948;5.922;2023-03-04T02:39:41;102516.84;;;6.58;91.23
57568;BME280;43403;51.948;5.922;2023-03-04T02:42:08;102515.16;;;6.57;91.37
57568;BME280;43403;51.948;5.922;2023-03-04T02:44:40;102517.09;;;6.53;91.35
57568;BME280;43403;51.948;5.922;2023-03-04T02:47:09;102504.13;;;6.51;91.79
57568;BME280;43403;51.948;5.922;2023-03-04T02:49:38;102504.03;;;6.53;91.17
57568;BME280;43403;51.948;5.922;2023-03-04T02:52:18;102510.09;;;6.53;91.25
57568;BME280;43403;51.948;5.922;2023-03-04T02:54:45;102507.81;;;6.47;90.48
57568;BME280;43403;51.948;5.922;2023-03-04T02:57:12;102504.19;;;6.50;90.69
57568;BME280;43403;51.948;5.922;2023-03-04T02:59:40;102497.44;;;6.46;89.72
57568;BME280;43403;51.948;5.922;2023-03-04T03:02:07;102499.22;;;6.45;89.59
57568;BME280;43403;51.948;5.922;2023-03-04T03:04:36;102493.31;;;6.42;87.41
57568;BME280;43403;51.948;5.922;2023-03-04T03:07:04;102496.00;;;6.40;88.22
57568;BME280;43403;51.948;5.922;2023-03-04T03:09:31;102500.31;;;6.41;88.76
57568;BME280;43403;51.948;5.922;2023-03-04T03:11:57;102488.16;;;6.40;88.87
57568;BME280;43403;51.948;5.922;2023-03-04T03:14:23;102482.06;;;6.41;88.12
57568;BME280;43403;51.948;5.922;2023-03-04T03:16:50;102480.09;;;6.45;89.29
57568;BME280;43403;51.948;5.922;2023-03-04T03:19:16;102478.38;;;6.45;89.32
57568;BME280;43403;51.948;5.922;2023-03-04T03:21:43;102475.84;;;6.44;88.79
57568;BME280;43403;51.948;5.922;2023-03-04T03:24:09;102475.59;;;6.48;89.58
57568;BME280;43403;51.948;5.922;2023-03-04T03:26:36;102477.44;;;6.46;88.87
57568;BME280;43403;51.948;5.922;2023-03-04T03:29:02;102469.53;;;6.48;89.79
57568;BME280;43403;51.948;5.922;2023-03-04T03:31:28;102462.78;;;6.44;90.10
57568;BME280;43403;51.948;5.922;2023-03-04T03:33:55;102463.72;;;6.43;90.43
57568;BME280;43403;51.948;5.922;2023-03-04T03:36:21;102464.56;;;6.43;90.77
57568;BME280;43403;51.948;5.922;2023-03-04T03:38:48;102460.25;;;6.42;90.42
57568;BME280;43403;51.948;5.922;2023-03-04T03:41:14;102456.91;;;6.40;91.59
57568;BME280;43403;51.948;5.922;2023-03-04T03:43:41;102463.94;;;6.38;92.85
57568;BME280;43403;51.948;5.922;2023-03-04T03:46:07;102464.19;;;6.33;92.67
57568;BME280;43403;51.948;5.922;2023-03-04T03:48:34;102466.72;;;6.35;93.27
57568;BME280;43403;51.948;5.922;2023-03-04T03:51:00;102472.59;;;6.39;93.06
57568;BME280;43403;51.948;5.922;2023-03-04T03:53:27;102467.25;;;6.42;92.73
57568;BME280;43403;51.948;5.922;2023-03-04T03:55:53;102473.91;;;6.47;92.00
57568;BME280;43403;51.948;5.922;2023-03-04T03:58:20;102470.53;;;6.45;92.17
57568;BME280;43403;51.948;5.922;2023-03-04T04:00:47;102476.66;;;6.44;92.99
57568;BME280;43403;51.948;5.922;2023-03-04T04:03:14;102477.28;;;6.49;91.91
57568;BME280;43403;51.948;5.922;2023-03-04T04:05:41;102473.75;;;6.50;92.34
57568;BME280;43403;51.948;5.922;2023-03-04T04:08:12;102473.09;;;6.47;92.60
57568;BME280;43403;51.948;5.922;2023-03-04T04:10:39;102480.28;;;6.42;92.85
57568;BME280;43403;51.948;5.922;2023-03-04T04:13:05;102475.06;;;6.42;92.79
57568;BME280;43403;51.948;5.922;2023-03-04T04:15:32;102471.44;;;6.44;92.82
57568;BME280;43403;51.948;5.922;2023-03-04T04:17:58;102471.69;;;6.40;92.42
57568;BME280;43403;51.948;5.922;2023-03-04T04:20:25;102475.97;;;6.41;92.89
57568;BME280;43403;51.948;5.922;2023-03-04T04:22:51;102473.38;;;6.41;93.36
57568;BME280;43403;51.948;5.922;2023-03-04T04:25:18;102475.06;;;6.42;94.25
57568;BME280;43403;51.948;5.922;2023-03-04T04:27:44;102478.59;;;6.41;94.87
57568;BME280;43403;51.948;5.922;2023-03-04T04:30:11;102471.69;;;6.40;94.52
57568;BME280;43403;51.948;5.922;2023-03-04T04:32:37;102470.09;;;6.37;94.40
57568;BME280;43403;51.948;5.922;2023-03-04T04:35:04;102470.00;;;6.39;95.69
57568;BME280;43403;51.948;5.922;2023-03-04T04:37:31;102473.69;;;6.34;94.46
57568;BME280;43403;51.948;5.922;2023-03-04T04:39:57;102476.16;;;6.38;94.61
57568;BME280;43403;51.948;5.922;2023-03-04T04:42:24;102471.69;;;6.40;95.60
57568;BME280;43403;51.948;5.922;2023-03-04T04:44:51;102475.38;;;6.36;96.18
57568;BME280;43403;51.948;5.922;2023-03-04T04:47:17;102479.75;;;6.35;94.97
57568;BME280;43403;51.948;5.922;2023-03-04T04:49:44;102476.22;;;6.36;96.53
57568;BME280;43403;51.948;5.922;2023-03-04T04:52:10;102477.94;;;6.37;96.31
57568;BME280;43403;51.948;5.922;2023-03-04T04:54:37;102482.19;;;6.38;97.39
57568;BME280;43403;51.948;5.922;2023-03-04T04:57:03;102473.69;;;6.34;98.18
57568;BME280;43403;51.948;5.922;2023-03-04T04:59:30;102482.97;;;6.40;98.64
57568;BME280;43403;51.948;5.922;2023-03-04T05:01:56;102475.31;;;6.37;98.45
57568;BME280;43403;51.948;5.922;2023-03-04T05:04:23;102478.38;;;6.28;97.42
57568;BME280;43403;51.948;5.922;2023-03-04T05:06:49;102476.69;;;6.27;98.28
57568;BME280;43403;51.948;5.922;2023-03-04T05:09:16;102473.31;;;6.25;99.54
57568;BME280;43403;51.948;5.922;2023-03-04T05:11:42;102475.09;;;6.24;99.60
57568;BME280;43403;51.948;5.922;2023-03-04T05:14:09;102469.88;;;6.24;99.30
57568;BME280;43403;51.948;5.922;2023-03-04T05:16:35;102477.75;;;6.23;99.98
57568;BME280;43403;51.948;5.922;2023-03-04T05:19:02;102475.41;;;6.18;100.00
57568;BME280;43403;51.948;5.922;2023-03-04T05:21:28;102475.09;;;6.24;100.00
57568;BME280;43403;51.948;5.922;2023-03-04T05:23:55;102478.59;;;6.23;100.00
57568;BME280;43403;51.948;5.922;2023-03-04T05:26:21;102475.09;;;6.24;100.00
57568;BME280;43403;51.948;5.922;2023-03-04T05:28:48;102479.97;;;6.30;100.00
57568;BME280;43403;51.948;5.922;2023-03-04T05:31:14;102481.69;;;6.31;100.00
57568;BME280;43403;51.948;5.922;2023-03-04T05:33:41;102482.59;;;6.30;100.00
57568;BME280;43403;51.948;5.922;2023-03-04T05:36:08;102473.75;;;6.33;100.00
57568;BME280;43403;51.948;5.922;2023-03-04T05:38:35;102465.09;;;6.32;100.00
57568;BME280;43403;51.948;5.922;2023-03-04T05:41:04;102471.94;;;6.35;100.00
57568;BME280;43403;51.948;5.922;2023-03-04T05:43:32;102476.16;;;6.38;100.00
57568;BME280;43403;51.948;5.922;2023-03-04T05:46:02;102482.19;;;6.38;100.00
57568;BME280;43403;51.948;5.922;2023-03-04T05:48:29;102482.28;;;6.37;100.00
57568;BME280;43403;51.948;5.922;2023-03-04T05:50:57;102481.44;;;6.36;100.00
57568;BME280;43403;51.948;5.922;2023-03-04T05:53:24;102485.63;;;6.39;100.00
57568;BME280;43403;51.948;5.922;2023-03-04T05:55:51;102490.19;;;6.35;100.00
57568;BME280;43403;51.948;5.922;2023-03-04T05:58:18;102486.72;;;6.34;100.00
57568;BME280;43403;51.948;5.922;2023-03-04T06:00:45;102486.72;;;6.34;100.00
57568;BME280;43403;51.948;5.922;2023-03-04T06:03:20;102487.41;;;6.38;100.00
57568;BME280;43403;51.948;5.922;2023-03-04T06:05:47;102486.03;;;6.31;100.00
57568;BME280;43403;51.948;5.922;2023-03-04T06:08:14;102491.34;;;6.29;100.00
57568;BME280;43403;51.948;5.922;2023-03-04T06:10:41;102493.94;;;6.29;100.00
57568;BME280;43403;51.948;5.922;2023-03-04T06:13:08;102482.84;;;6.26;100.00
57568;BME280;43403;51.948;5.922;2023-03-04T06:15:35;102481.81;;;6.28;100.00
57568;BME280;43403;51.948;5.922;2023-03-04T06:18:02;102484.66;;;6.24;100.00
57568;BME280;43403;51.948;5.922;2023-03-04T06:20:29;102487.22;;;6.25;100.00
57568;BME280;43403;51.948;5.922;2023-03-04T06:22:55;102484.66;;;6.24;100.00
57568;BME280;43403;51.948;5.922;2023-03-04T06:25:22;102487.34;;;6.22;100.00
57568;BME280;43403;51.948;5.922;2023-03-04T06:27:49;102485.75;;;6.20;100.00
57568;BME280;43403;51.948;5.922;2023-03-04T06:30:17;102492.56;;;6.22;100.00
57568;BME280;43403;51.948;5.922;2023-03-04T06:32:44;102491.88;;;6.19;100.00
57568;BME280;43403;51.948;5.922;2023-03-04T06:35:11;102492.63;;;6.21;100.00
57568;BME280;43403;51.948;5.922;2023-03-04T06:37:38;102494.47;;;6.19;100.00
57568;BME280;43403;51.948;5.922;2023-03-04T06:40:05;102491.72;;;6.22;100.00
57568;BME280;43403;51.948;5.922;2023-03-04T06:42:33;102481.44;;;6.19;100.00
57568;BME280;43403;51.948;5.922;2023-03-04T06:45:00;102492.88;;;6.16;100.00
57568;BME280;43403;51.948;5.922;2023-03-04T06:47:27;102496.25;;;6.18;100.00
57568;BME280;43403;51.948;5.922;2023-03-04T06:49:53;102498.69;;;6.21;100.00
57568;BME280;43403;51.948;5.922;2023-03-04T06:52:20;102497.91;;;6.19;100.00
57568;BME280;43403;51.948;5.922;2023-03-04T06:54:46;102495.31;;;6.19;100.00
57568;BME280;43403;51.948;5.922;2023-03-04T06:57:13;102485.81;;;6.18;100.00
57568;BME280;43403;51.948;5.922;2023-03-04T06:59:39;102492.81;;;6.18;100.00
57568;BME280;43403;51.948;5.922;2023-03-04T07:02:06;102498.59;;;6.23;100.00
57568;BME280;43403;51.948;5.922;2023-03-04T07:04:35;102506.59;;;6.20;100.00
57568;BME280;43403;51.948;5.922;2023-03-04T07:07:01;102500.69;;;6.16;100.00
57568;BME280;43403;51.948;5.922;2023-03-04T07:09:28;102508.56;;;6.14;100.00
57568;BME280;43403;51.948;5.922;2023-03-04T07:11:54;102497.06;;;6.19;100.00
57568;BME280;43403;51.948;5.922;2023-03-04T07:14:21;102504.81;;;6.20;100.00
57568;BME280;43403;51.948;5.922;2023-03-04T07:16:49;102503.88;;;6.21;100.00
57568;BME280;43403;51.948;5.922;2023-03-04T07:19:16;102509.09;;;6.21;100.00
57568;BME280;43403;51.948;5.922;2023-03-04T07:21:42;102511.81;;;6.20;100.00
57568;BME280;43403;51.948;5.922;2023-03-04T07:24:09;102502.34;;;6.17;100.00
57568;BME280;43403;51.948;5.922;2023-03-04T07:26:35;102506.72;;;6.17;100.00
57568;BME280;43403;51.948;5.922;2023-03-04T07:29:04;102509.34;;;6.17;100.00
57568;BME280;43403;51.948;5.922;2023-03-04T07:31:32;102513.72;;;6.16;100.00
57568;BME280;43403;51.948;5.922;2023-03-04T07:34:08;102514.72;;;6.13;100.00
57568;BME280;43403;51.948;5.922;2023-03-04T07:36:35;102514.72;;;6.13;100.00
57568;BME280;43403;51.948;5.922;2023-03-04T07:39:02;102528.59;;;6.14;100.00
57568;BME280;43403;51.948;5.922;2023-03-04T07:41:29;102519.00;;;6.14;100.00
57568;BME280;43403;51.948;5.922;2023-03-04T07:43:57;102516.94;;;6.04;100.00
57568;BME280;43403;51.948;5.922;2023-03-04T07:46:24;102517.78;;;6.04;100.00
57568;BME280;43403;51.948;5.922;2023-03-04T07:48:51;102516.94;;;6.04;100.00
57568;BME280;43403;51.948;5.922;2023-03-04T07:51:23;102516.78;;;6.07;100.00
57568;BME280;43403;51.948;5.922;2023-03-04T07:53:52;102512.31;;;6.09;100.00
57568;BME280;43403;51.948;5.922;2023-03-04T07:56:21;102517.59;;;6.07;100.00
57568;BME280;43403;51.948;5.922;2023-03-04T07:58:48;102516.53;;;6.11;100.00
57568;BME280;43403;51.948;5.922;2023-03-04T08:01:17;102523.00;;;6.22;100.00
57568;BME280;43403;51.948;5.922;2023-03-04T08:03:44;102517.63;;;6.25;100.00
57568;BME280;43403;51.948;5.922;2023-03-04T08:06:13;102522.31;;;6.36;100.00
57568;BME280;43403;51.948;5.922;2023-03-04T08:08:39;102523.44;;;6.47;100.00
57568;BME280;43403;51.948;5.922;2023-03-04T08:11:08;102527.72;;;6.48;100.00
57568;BME280;43403;51.948;5.922;2023-03-04T08:13:36;102524.28;;;6.48;100.00
57568;BME280;43403;51.948;5.922;2023-03-04T08:16:03;102527.50;;;6.53;100.00
57568;BME280;43403;51.948;5.922;2023-03-04T08:18:30;102522.06;;;6.58;100.00
57568;BME280;43403;51.948;5.922;2023-03-04T08:20:57;102530.25;;;6.67;100.00
57568;BME280;43403;51.948;5.922;2023-03-04T08:23:23;102522.66;;;6.63;100.00
57568;BME280;43403;51.948;5.922;2023-03-04T08:25:50;102530.56;;;6.61;100.00
57568;BME280;43403;51.948;5.922;2023-03-04T08:28:17;102531.56;;;6.59;100.00
57568;BME280;43403;51.948;5.922;2023-03-04T08:30:44;102531.56;;;6.59;100.00
57568;BME280;43403;51.948;5.922;2023-03-04T08:33:10;102532.72;;;6.53;100.00
57568;BME280;43403;51.948;5.922;2023-03-04T08:35:38;102532.47;;;6.58;100.00
57568;BME280;43403;51.948;5.922;2023-03-04T08:38:05;102531.31;;;6.63;100.00
57568;BME280;43403;51.948;5.922;2023-03-04T08:40:32;102530.63;;;6.60;100.00
57568;BME280;43403;51.948;5.922;2023-03-04T08:42:59;102531.94;;;6.68;100.00
57568;BME280;43403;51.948;5.922;2023-03-04T08:45:26;102526.31;;;6.76;100.00
57568;BME280;43403;51.948;5.922;2023-03-04T08:47:52;102532.97;;;6.82;100.00
57568;BME280;43403;51.948;5.922;2023-03-04T08:50:19;102532.81;;;6.85;100.00
57568;BME280;43403;51.948;5.922;2023-03-04T08:52:47;102522.06;;;6.91;100.00
57568;BME280;43403;51.948;5.922;2023-03-04T08:55:14;102524.59;;;6.92;100.00
57568;BME280;43403;51.948;5.922;2023-03-04T08:57:41;102527.63;;;7.01;100.00
57568;BME280;43403;51.948;5.922;2023-03-04T09:00:08;102523.88;;;7.06;100.00
57568;BME280;43403;51.948;5.922;2023-03-04T09:02:35;102529.50;;;6.99;100.00
57568;BME280;43403;51.948;5.922;2023-03-04T09:05:01;102530.84;;;7.06;100.00
57568;BME280;43403;51.948;5.922;2023-03-04T09:07:28;102529.00;;;7.08;100.00
57568;BME280;43403;51.948;5.922;2023-03-04T09:09:54;102538.34;;;7.12;100.00
57568;BME280;43403;51.948;5.922;2023-03-04T09:12:21;102533.13;;;7.12;100.00
57568;BME280;43403;51.948;5.922;2023-03-04T09:14:47;102533.72;;;7.17;100.00
57568;BME280;43403;51.948;5.922;2023-03-04T09:17:33;102533.56;;;7.20;100.00
57568;BME280;43403;51.948;5.922;2023-03-04T09:20:00;102524.78;;;7.21;100.00
57568;BME280;43403;51.948;5.922;2023-03-04T09:22:29;102531.63;;;7.24;100.00
57568;BME280;43403;51.948;5.922;2023-03-04T09:24:56;102523.97;;;7.21;100.00
57568;BME280;43403;51.948;5.922;2023-03-04T09:27:22;102525.66;;;7.22;100.00
57568;BME280;43403;51.948;5.922;2023-03-04T09:29:49;102531.03;;;7.19;100.00
57568;BME280;43403;51.948;5.922;2023-03-04T09:32:15;102529.34;;;7.18;100.00
57568;BME280;43403;51.948;5.922;2023-03-04T09:34:42;102520.25;;;7.25;100.00
57568;BME280;43403;51.948;5.922;2023-03-04T09:37:09;102515.44;;;7.33;100.00
57568;BME280;43403;51.948;5.922;2023-03-04T09:39:35;102517.06;;;7.36;100.00
57568;BME280;43403;51.948;5.922;2023-03-04T09:42:03;102509.41;;;7.48;100.00
57568;BME280;43403;51.948;5.922;2023-03-04T09:44:40;102521.28;;;7.54;100.00
57568;BME280;43403;51.948;5.922;2023-03-04T09:47:25;102515.13;;;7.55;100.00
57568;BME280;43403;51.948;5.922;2023-03-04T09:49:59;102511.34;;;7.61;100.00
57568;BME280;43403;51.948;5.922;2023-03-04T09:53:00;102510.75;;;7.56;100.00
57568;BME280;43403;51.948;5.922;2023-03-04T09:55:37;102506.13;;;7.45;100.00
57568;BME280;43403;51.948;5.922;2023-03-04T09:58:38;102507.97;;;7.59;100.00
57568;BME280;43403;51.948;5.922;2023-03-04T10:01:18;102507.38;;;7.53;100.00
57568;BME280;43403;51.948;5.922;2023-03-04T10:03:50;102506.44;;;7.55;100.00
57568;BME280;43403;51.948;5.922;2023-03-04T10:06:20;102502.75;;;7.59;100.00
57568;BME280;43403;51.948;5.922;2023-03-04T10:08:55;102495.41;;;7.65;100.00
57568;BME280;43403;51.948;5.922;2023-03-04T10:11:43;102504.47;;;7.74;100.00
57568;BME280;43403;51.948;5.922;2023-03-04T10:25:15;102488.25;;;8.29;100.00
57568;BME280;43403;51.948;5.922;2023-03-04T10:27:46;102487.38;;;8.29;100.00
57568;BME280;43403;51.948;5.922;2023-03-04T10:33:15;102485.19;;;8.37;100.00
57568;BME280;43403;51.948;5.922;2023-03-04T10:35:46;102483.47;;;8.36;100.00
57568;BME280;43403;51.948;5.922;2023-03-04T10:38:14;102484.59;;;8.18;100.00
57568;BME280;43403;51.948;5.922;2023-03-04T10:40:41;102484.47;;;8.19;100.00
57568;BME280;43403;51.948;5.922;2023-03-04T10:43:15;102483.56;;;8.20;100.00
57568;BME280;43403;51.948;5.922;2023-03-04T10:45:42;102479.81;;;8.10;100.00
57568;BME280;43403;51.948;5.922;2023-03-04T10:48:39;102477.00;;;8.13;100.00
57568;BME280;43403;51.948;5.922;2023-03-04T10:54:00;102471.97;;;8.10;100.00
57568;BME280;43403;51.948;5.922;2023-03-04T10:56:41;102468.34;;;8.27;100.00
57568;BME280;43403;51.948;5.922;2023-03-04T10:59:40;102462.47;;;8.38;100.00
57568;BME280;43403;51.948;5.922;2023-03-04T11:02:15;102459.44;;;8.45;100.00
57568;BME280;43403;51.948;5.922;2023-03-04T11:04:49;102457.28;;;8.52;100.00
57568;BME280;43403;51.948;5.922;2023-03-04T11:07:15;102452.44;;;8.46;100.00
57568;BME280;43403;51.948;5.922;2023-03-04T11:09:43;102462.06;;;8.45;100.00
57568;BME280;43403;51.948;5.922;2023-03-04T11:12:16;102458.13;;;8.52;100.00
57568;BME280;43403;51.948;5.922;2023-03-04T11:14:48;102460.75;;;8.67;100.00
57568;BME280;43403;51.948;5.922;2023-03-04T11:17:25;102457.78;;;8.59;100.00
57568;BME280;43403;51.948;5.922;2023-03-04T11:19:56;102456.00;;;8.59;100.00
57568;BME280;43403;51.948;5.922;2023-03-04T11:22:24;102451.13;;;8.53;100.00
57568;BME280;43403;51.948;5.922;2023-03-04T11:25:00;102448.13;;;8.59;100.00
57568;BME280;43403;51.948;5.922;2023-03-04T11:27:37;102453.00;;;8.65;100.00
57568;BME280;43403;51.948;5.922;2023-03-04T11:30:25;102445.81;;;8.69;100.00
57568;BME280;43403;51.948;5.922;2023-03-04T11:33:03;102446.47;;;8.73;100.00
57568;BME280;43403;51.948;5.922;2023-03-04T11:35:40;102444.94;;;8.83;100.00
57568;BME280;43403;51.948;5.922;2023-03-04T11:39:02;102443.44;;;8.93;100.00
57568;BME280;43403;51.948;5.922;2023-03-04T11:41:12;102433.41;;;9.14;100.00
57568;BME280;43403;51.948;5.922;2023-03-04T11:43:44;102435.72;;;9.19;100.00
57568;BME280;43403;51.948;5.922;2023-03-04T12:01:09;102409.19;;;9.38;100.00
57568;BME280;43403;51.948;5.922;2023-03-04T12:04:00;102408.53;;;9.34;100.00
57568;BME280;43403;51.948;5.922;2023-03-04T12:15:08;102410.88;;;9.12;100.00
57568;BME280;43403;51.948;5.922;2023-03-04T12:20:41;102403.94;;;9.10;100.00
57568;BME280;43403;51.948;5.922;2023-03-04T12:23:27;102402.91;;;9.13;100.00
57568;BME280;43403;51.948;5.922;2023-03-04T12:26:29;102393.16;;;9.15;100.00
57568;BME280;43403;51.948;5.922;2023-03-04T12:32:02;102387.41;;;9.37;100.00
57568;BME280;43403;51.948;5.922;2023-03-04T12:34:51;102388.25;;;9.50;100.00
57568;BME280;43403;51.948;5.922;2023-03-04T12:51:12;102385.56;;;9.25;100.00
57568;BME280;43403;51.948;5.922;2023-03-04T12:56:26;102393.03;;;9.04;100.00
57568;BME280;43403;51.948;5.922;2023-03-04T12:58:59;102381.41;;;8.81;100.00
57568;BME280;43403;51.948;5.922;2023-03-04T13:01:35;102374.59;;;8.78;100.00
57568;BME280;43403;51.948;5.922;2023-03-04T13:04:14;102375.44;;;8.64;100.00
57568;BME280;43403;51.948;5.922;2023-03-04T13:09:33;102371.94;;;8.51;100.00
57568;BME280;43403;51.948;5.922;2023-03-04T13:12:20;102365.94;;;8.49;100.00
57568;BME280;43403;51.948;5.922;2023-03-04T13:17:52;102361.34;;;8.67;100.00
57568;BME280;43403;51.948;5.922;2023-03-04T13:23:23;102350.84;;;8.81;100.00
57568;BME280;43403;51.948;5.922;2023-03-04T13:26:33;102347.56;;;9.19;100.00
57568;BME280;43403;51.948;5.922;2023-03-04T13:28:35;102342.84;;;9.64;100.00
57568;BME280;43403;51.948;5.922;2023-03-04T13:31:24;102349.13;;;10.00;100.00
57568;BME280;43403;51.948;5.922;2023-03-04T13:33:55;102336.00;;;10.39;100.00
57568;BME280;43403;51.948;5.922;2023-03-04T13:36:51;102330.19;;;10.46;100.00
57568;BME280;43403;51.948;5.922;2023-03-04T13:39:25;102336.00;;;10.39;95.21
57568;BME280;43403;51.948;5.922;2023-03-04T13:41:54;102339.69;;;10.23;90.14
57568;BME280;43403;51.948;5.922;2023-03-04T13:44:55;102330.66;;;10.15;92.66
57568;BME280;43403;51.948;5.922;2023-03-04T13:47:31;102331.59;;;10.01;90.19
57568;BME280;43403;51.948;5.922;2023-03-04T13:50:29;102338.00;;;9.97;91.38
57568;BME280;43403;51.948;5.922;2023-03-04T13:53:28;102337.59;;;9.90;89.57
57568;BME280;43403;51.948;5.922;2023-03-04T13:56:19;102332.66;;;9.85;92.64
57568;BME280;43403;51.948;5.922;2023-03-04T13:59:00;102331.50;;;9.77;90.04
57568;BME280;43403;51.948;5.922;2023-03-04T14:01:30;102341.47;;;9.72;87.05
57568;BME280;43403;51.948;5.922;2023-03-04T14:04:11;102341.56;;;9.70;90.72
57568;BME280;43403;51.948;5.922;2023-03-04T14:06:43;102340.00;;;9.67;93.79
57568;BME280;43403;51.948;5.922;2023-03-04T14:09:20;102339.34;;;9.64;88.05
57568;BME280;43403;51.948;5.922;2023-03-04T14:11:48;102330.03;;;9.60;90.16
57568;BME280;43403;51.948;5.922;2023-03-04T14:14:17;102331.81;;;9.59;85.52
57568;BME280;43403;51.948;5.922;2023-03-04T14:17:00;102333.28;;;9.63;89.58
57568;BME280;43403;51.948;5.922;2023-03-04T14:19:33;102337.38;;;9.55;86.16
57568;BME280;43403;51.948;5.922;2023-03-04T14:22:37;102319.13;;;9.53;84.35